createdAt,value
2023-02-11T00:02:08.324Z,78.79
2023-02-11T00:05:11.053Z,78.94
2023-02-11T00:08:17.194Z,78.75
2023-02-11T00:11:20.431Z,78.72
2023-02-11T00:14:23.156Z,78.79
2023-02-11T00:17:26.051Z,78.63
2023-02-11T00:20:28.732Z,78.60
2023-02-11T00:23:31.586Z,78.56
2023-02-11T00:26:35.170Z,78.37
2023-02-11T00:29:38.201Z,78.34
2023-02-11T00:32:42.629Z,78.40
2023-02-11T00:35:45.347Z,78.34
2023-02-11T00:38:48.487Z,78.27
2023-02-11T00:41:51.359Z,78.32
2023-02-11T00:44:54.094Z,78.23
2023-02-11T00:47:57.044Z,78.34
2023-02-11T00:50:59.733Z,78.13
2023-02-11T00:54:02.806Z,78.12
2023-02-11T00:57:05.486Z,78.17
2023-02-11T01:00:09.080Z,78.07
2023-02-11T01:03:11.858Z,78.17
2023-02-11T01:06:14.921Z,78.12
2023-02-11T01:09:17.670Z,77.83
2023-02-11T01:12:20.599Z,77.95
2023-02-11T01:15:23.307Z,77.75
2023-02-11T01:18:26.020Z,77.75
2023-02-11T01:21:28.722Z,77.69
2023-02-11T01:24:31.373Z,77.59
2023-02-11T01:27:34.365Z,77.48
2023-02-11T01:30:37.040Z,77.40
2023-02-11T01:33:39.976Z,77.59
2023-02-11T01:36:42.635Z,77.40
2023-02-11T01:39:45.250Z,77.19
2023-02-11T01:42:50.884Z,77.22
2023-02-11T01:45:58.233Z,77.11
2023-02-11T01:49:12.599Z,77.12
2023-02-11T01:52:22.284Z,77.18
2023-02-11T01:55:43.671Z,77.07
2023-02-11T01:58:48.879Z,76.90
2023-02-11T02:01:57.170Z,76.89
2023-02-11T02:05:07.320Z,76.80
2023-02-11T02:08:14.895Z,76.66
2023-02-11T02:11:17.728Z,76.71
2023-02-11T02:14:20.777Z,76.55
2023-02-11T02:17:34.414Z,76.43
2023-02-11T02:21:01.294Z,76.58
2023-02-11T02:24:17.472Z,76.57
2023-02-11T02:27:20.056Z,76.45
2023-02-11T02:30:35.145Z,76.35
2023-02-11T02:33:53.903Z,76.41
2023-02-11T02:37:09.874Z,76.32
2023-02-11T02:40:15.712Z,76.40
2023-02-11T02:43:18.708Z,76.22
2023-02-11T02:46:32.279Z,76.29
2023-02-11T02:49:35.005Z,76.17
2023-02-11T02:53:01.832Z,76.13
2023-02-11T02:56:08.539Z,76.03
2023-02-11T02:59:11.133Z,75.99
2023-02-11T03:02:13.736Z,76.10
2023-02-11T03:05:19.050Z,76.03
2023-02-11T03:08:32.547Z,75.89
2023-02-11T03:11:36.332Z,76.01
2023-02-11T03:14:40.282Z,75.85
2023-02-11T03:17:45.520Z,75.77
2023-02-11T03:20:50.674Z,75.94
2023-02-11T03:23:55.149Z,75.99
2023-02-11T03:27:01.995Z,75.67
2023-02-11T03:30:13.538Z,75.72
2023-02-11T03:33:34.204Z,75.51
2023-02-11T03:36:46.113Z,75.63
2023-02-11T03:39:54.811Z,75.61
2023-02-11T03:42:59.974Z,75.68
2023-02-11T03:46:03.498Z,75.50
2023-02-11T03:49:12.080Z,75.68
2023-02-11T03:52:15.886Z,75.50
2023-02-11T03:55:21.209Z,75.39
2023-02-11T03:58:24.052Z,75.41
2023-02-11T04:01:26.753Z,75.38
2023-02-11T04:04:29.563Z,75.30
2023-02-11T04:07:32.369Z,75.45
2023-02-11T04:10:35.156Z,75.34
2023-02-11T04:13:38.063Z,75.14
2023-02-11T04:16:40.893Z,75.26
2023-02-11T04:19:43.725Z,74.99
2023-02-11T04:22:46.453Z,75.24
2023-02-11T04:25:49.887Z,75.13
2023-02-11T04:28:52.743Z,75.07
2023-02-11T04:31:55.690Z,75.14
2023-02-11T04:34:58.425Z,75.13
2023-02-11T04:38:01.062Z,75.13
2023-02-11T04:41:03.747Z,75.02
2023-02-11T04:44:06.496Z,75.14
2023-02-11T04:47:09.146Z,75.04
2023-02-11T04:50:11.820Z,75.03
2023-02-11T04:53:14.429Z,75.11
2023-02-11T04:56:17.092Z,75.05
2023-02-11T04:59:19.729Z,75.12
2023-02-11T05:02:22.437Z,75.18
2023-02-11T05:05:25.116Z,75.24
2023-02-11T05:08:28.297Z,75.02
2023-02-11T05:11:30.911Z,74.93
2023-02-11T05:14:33.556Z,74.90
2023-02-11T05:17:36.204Z,75.01
2023-02-11T05:20:39.370Z,75.05
2023-02-11T05:23:42.399Z,75.04
2023-02-11T05:26:45.131Z,74.96
2023-02-11T05:29:47.750Z,75.07
2023-02-11T05:32:50.434Z,74.99
2023-02-11T05:35:58.187Z,75.10
2023-02-11T05:39:00.796Z,75.17
2023-02-11T05:42:03.823Z,75.28
2023-02-11T05:45:06.707Z,75.13
2023-02-11T05:48:09.356Z,75.35
2023-02-11T05:51:12.010Z,75.35
2023-02-11T05:54:14.660Z,75.31
2023-02-11T05:57:17.312Z,75.47
2023-02-11T06:00:20.156Z,75.41
2023-02-11T06:03:22.902Z,75.42
2023-02-11T06:06:25.742Z,75.56
2023-02-11T06:09:28.358Z,75.61
2023-02-11T06:12:31.095Z,75.56
2023-02-11T06:15:33.683Z,75.59
2023-02-11T06:18:36.441Z,75.64
2023-02-11T06:21:44.075Z,75.63
2023-02-11T06:25:00.867Z,75.76
2023-02-11T06:28:04.790Z,75.62
2023-02-11T06:31:08.012Z,75.56
2023-02-11T06:34:10.820Z,75.62
2023-02-11T06:37:13.461Z,75.55
2023-02-11T06:40:16.083Z,75.39
2023-02-11T06:43:18.732Z,75.19
2023-02-11T06:46:21.773Z,75.16
2023-02-11T06:49:24.453Z,75.05
2023-02-11T06:52:27.152Z,74.77
2023-02-11T06:55:29.853Z,74.88
2023-02-11T06:58:33.111Z,74.94
2023-02-11T07:01:35.797Z,75.29
2023-02-11T07:04:38.645Z,75.13
2023-02-11T07:07:41.438Z,75.37
2023-02-11T07:10:44.197Z,75.64
2023-02-11T07:13:47.587Z,75.75
2023-02-11T07:16:50.280Z,75.85
2023-02-11T07:19:52.903Z,75.84
2023-02-11T07:22:55.563Z,76.07
2023-02-11T07:25:58.161Z,76.15
2023-02-11T07:29:00.763Z,76.34
2023-02-11T07:32:03.482Z,76.29
2023-02-11T07:35:06.389Z,76.28
2023-02-11T07:38:09.208Z,76.24
2023-02-11T07:41:16.445Z,76.27
2023-02-11T07:44:19.283Z,76.38
2023-02-11T07:47:21.914Z,76.41
2023-02-11T07:50:24.539Z,76.49
2023-02-11T07:53:27.185Z,76.97
2023-02-11T07:56:30.465Z,77.14
2023-02-11T07:59:33.139Z,77.36
2023-02-11T08:02:35.858Z,77.68
2023-02-11T08:05:39.011Z,78.15
2023-02-11T08:08:42.367Z,78.57
2023-02-11T08:11:45.457Z,79.35
2023-02-11T08:14:48.136Z,79.60
2023-02-11T08:17:50.736Z,80.20
2023-02-11T08:20:53.398Z,80.30
2023-02-11T08:23:56.468Z,80.57
2023-02-11T08:26:59.075Z,80.87
2023-02-11T08:30:01.996Z,81.09
2023-02-11T08:33:04.915Z,80.95
2023-02-11T08:36:08.818Z,81.22
2023-02-11T08:39:21.048Z,81.29
2023-02-11T08:42:24.346Z,81.80
2023-02-11T08:45:27.068Z,81.63
2023-02-11T08:48:30.107Z,81.92
2023-02-11T08:51:33.050Z,82.03
2023-02-11T08:54:35.663Z,82.05
2023-02-11T08:57:38.436Z,82.47
2023-02-11T09:00:41.244Z,82.57
2023-02-11T09:03:44.610Z,82.76
2023-02-11T09:06:47.521Z,82.71
2023-02-11T09:09:50.189Z,82.64
2023-02-11T09:12:52.943Z,82.48
2023-02-11T09:15:55.661Z,82.52
2023-02-11T09:18:59.553Z,82.58
2023-02-11T09:22:02.160Z,82.73
2023-02-11T09:25:05.059Z,82.89
2023-02-11T09:28:08.586Z,82.88
2023-02-11T09:31:13.650Z,82.96
2023-02-11T09:34:16.551Z,83.10
2023-02-11T09:37:19.240Z,83.32
2023-02-11T09:40:22.260Z,83.57
2023-02-11T09:43:31.321Z,83.90
2023-02-11T09:46:40.123Z,84.03
2023-02-11T09:49:48.846Z,83.86
2023-02-11T09:52:55.702Z,84.00
2023-02-11T09:56:02.733Z,84.09
2023-02-11T09:59:05.515Z,83.85
2023-02-11T10:02:20.323Z,84.06
2023-02-11T10:05:35.456Z,84.13
2023-02-11T10:08:47.818Z,84.16
2023-02-11T10:11:59.659Z,84.04
2023-02-11T10:15:15.011Z,84.20
2023-02-11T10:18:32.687Z,84.38
2023-02-11T10:21:46.728Z,84.34
2023-02-11T10:24:54.402Z,84.59
2023-02-11T10:27:59.721Z,84.66
2023-02-11T10:31:02.587Z,84.96
2023-02-11T10:34:07.199Z,84.99
2023-02-11T10:37:13.110Z,84.87
2023-02-11T10:40:18.042Z,84.94
2023-02-11T10:43:23.987Z,85.19
2023-02-11T10:46:29.670Z,85.08
2023-02-11T10:49:38.058Z,85.00
2023-02-11T10:52:40.695Z,85.12
2023-02-11T10:56:09.704Z,85.28
2023-02-11T10:59:24.852Z,85.28
2023-02-11T11:02:34.695Z,85.60
2023-02-11T11:05:46.109Z,85.68
2023-02-11T11:08:50.338Z,85.92
2023-02-11T11:11:56.441Z,86.09
2023-02-11T11:15:00.422Z,86.06
2023-02-11T11:18:24.602Z,86.29
2023-02-11T11:21:33.477Z,86.30
2023-02-11T11:24:44.166Z,86.35
2023-02-11T11:27:51.006Z,86.34
2023-02-11T11:30:55.437Z,86.21
2023-02-11T11:33:59.768Z,86.36
2023-02-11T11:37:10.485Z,86.67
2023-02-11T11:40:16.002Z,86.61
2023-02-11T11:43:23.040Z,87.07
2023-02-11T11:46:29.482Z,86.60
2023-02-11T11:49:55.352Z,86.77
2023-02-11T11:53:01.628Z,86.74
2023-02-11T11:56:11.518Z,86.64
2023-02-11T11:59:16.697Z,86.32
2023-02-11T12:02:19.425Z,86.19
2023-02-11T12:05:48.592Z,86.12
2023-02-11T12:09:09.633Z,86.03
2023-02-11T12:12:15.406Z,86.17
2023-02-11T12:15:20.901Z,86.16
2023-02-11T12:18:23.525Z,86.04
2023-02-11T12:21:31.964Z,86.20
2023-02-11T12:24:54.142Z,86.27
2023-02-11T12:28:12.447Z,86.47
2023-02-11T12:31:15.225Z,86.41
2023-02-11T12:34:28.977Z,86.56
2023-02-11T12:37:53.558Z,86.67
2023-02-11T12:41:01.967Z,86.72
2023-02-11T12:44:05.864Z,86.74
2023-02-11T12:47:22.747Z,86.90
2023-02-11T12:50:37.513Z,86.74
2023-02-11T12:54:09.552Z,87.12
2023-02-11T12:57:12.233Z,87.29
2023-02-11T13:00:22.163Z,87.22
2023-02-11T13:03:40.447Z,87.06
2023-02-11T13:06:49.418Z,87.18
2023-02-11T13:09:58.245Z,87.19
2023-02-11T13:13:17.432Z,87.33
2023-02-11T13:16:25.958Z,87.34
2023-02-11T13:19:39.201Z,87.27
2023-02-11T13:22:48.851Z,87.32
2023-02-11T13:26:10.426Z,87.25
2023-02-11T13:29:19.158Z,87.33
2023-02-11T13:32:21.931Z,87.21
2023-02-11T13:35:31.932Z,87.10
2023-02-11T13:38:35.104Z,87.20
2023-02-11T13:41:41.446Z,87.22
2023-02-11T13:44:44.532Z,87.20
2023-02-11T13:47:52.411Z,87.04
2023-02-11T13:51:00.404Z,87.07
2023-02-11T13:54:03.979Z,86.89
2023-02-11T13:57:21.799Z,86.93
2023-02-11T14:00:36.742Z,87.00
2023-02-11T14:03:58.229Z,87.02
2023-02-11T14:07:49.184Z,87.04
2023-02-11T14:10:58.038Z,86.94
2023-02-11T14:14:15.976Z,86.93
2023-02-11T14:17:20.245Z,86.89
2023-02-11T14:20:35.549Z,86.56
2023-02-11T14:23:38.391Z,86.73
2023-02-11T14:26:44.240Z,86.69
2023-02-11T14:30:02.406Z,86.73
2023-02-11T14:33:23.991Z,86.59
2023-02-11T14:36:29.489Z,86.62
2023-02-11T14:40:07.689Z,86.72
2023-02-11T14:43:16.995Z,86.91
2023-02-11T14:46:21.171Z,86.91
2023-02-11T14:49:34.722Z,86.87
2023-02-11T14:52:37.940Z,86.87
2023-02-11T14:55:42.015Z,86.97
2023-02-11T14:58:48.981Z,87.04
2023-02-11T15:01:54.468Z,87.11
2023-02-11T15:05:13.583Z,86.96
2023-02-11T15:08:16.262Z,87.16
2023-02-11T15:11:21.254Z,87.16
2023-02-11T15:14:25.116Z,87.12
2023-02-11T15:17:29.735Z,87.24
2023-02-11T15:20:33.756Z,87.25
2023-02-11T15:23:37.223Z,87.41
2023-02-11T15:26:39.852Z,87.53
2023-02-11T15:29:44.212Z,87.80
2023-02-11T15:32:46.839Z,87.39
2023-02-11T15:35:49.516Z,87.36
2023-02-11T15:39:10.771Z,87.49
2023-02-11T15:42:17.436Z,87.38
2023-02-11T15:45:20.586Z,87.39
2023-02-11T15:48:37.448Z,87.43
2023-02-11T15:51:42.638Z,87.23
2023-02-11T15:54:47.097Z,87.51
2023-02-11T15:57:53.194Z,87.29
2023-02-11T16:00:59.895Z,87.30
2023-02-11T16:04:03.945Z,87.26
2023-02-11T16:07:06.926Z,87.22
2023-02-11T16:10:18.758Z,87.14
2023-02-11T16:13:21.468Z,87.17
2023-02-11T16:16:26.229Z,87.30
2023-02-11T16:19:30.283Z,87.26
2023-02-11T16:22:38.236Z,87.23
2023-02-11T16:25:42.221Z,87.25
2023-02-11T16:28:44.835Z,87.15
2023-02-11T16:31:48.420Z,86.98
2023-02-11T16:34:52.987Z,87.01
2023-02-11T16:37:55.855Z,87.16
2023-02-11T16:40:58.541Z,87.19
2023-02-11T16:44:01.463Z,87.07
2023-02-11T16:47:06.867Z,86.94
2023-02-11T16:50:11.416Z,87.15
2023-02-11T16:53:17.758Z,87.08
2023-02-11T16:56:20.624Z,87.16
2023-02-11T16:59:23.634Z,87.18
2023-02-11T17:02:28.513Z,87.29
2023-02-11T17:05:35.880Z,87.07
2023-02-11T17:08:46.225Z,87.18
2023-02-11T17:11:48.937Z,87.22
2023-02-11T17:14:52.080Z,87.50
2023-02-11T17:17:54.749Z,87.54
2023-02-11T17:20:57.891Z,87.35
2023-02-11T17:24:00.683Z,87.54
2023-02-11T17:27:03.494Z,87.57
2023-02-11T17:30:06.597Z,87.58
2023-02-11T17:33:09.612Z,87.71
2023-02-11T17:36:12.389Z,87.53
2023-02-11T17:39:15.089Z,88.00
2023-02-11T17:42:19.215Z,87.66
2023-02-11T17:45:22.497Z,87.79
2023-02-11T17:48:25.227Z,87.86
2023-02-11T17:51:29.496Z,87.82
2023-02-11T17:54:32.268Z,87.73
2023-02-11T17:57:34.948Z,88.18
2023-02-11T18:00:37.617Z,88.03
2023-02-11T18:03:40.294Z,88.16
2023-02-11T18:06:43.007Z,88.02
2023-02-11T18:09:45.704Z,88.15
2023-02-11T18:12:48.316Z,88.27
2023-02-11T18:15:51.389Z,87.97
2023-02-11T18:18:54.429Z,88.40
2023-02-11T18:21:59.764Z,88.16
2023-02-11T18:25:03.952Z,88.18
2023-02-11T18:28:06.683Z,87.81
2023-02-11T18:31:09.962Z,88.15
2023-02-11T18:34:12.885Z,88.02
2023-02-11T18:37:16.466Z,88.18
2023-02-11T18:40:19.222Z,88.08
2023-02-11T18:43:21.917Z,88.37
2023-02-11T18:46:24.581Z,88.36
2023-02-11T18:49:27.491Z,88.37
2023-02-11T18:52:31.594Z,88.52
2023-02-11T18:55:34.464Z,88.53
2023-02-11T18:58:40.243Z,88.47
2023-02-11T19:01:46.919Z,88.50
2023-02-11T19:04:49.691Z,88.44
2023-02-11T19:07:52.465Z,88.50
2023-02-11T19:10:55.224Z,88.68
2023-02-11T19:13:58.011Z,88.36
2023-02-11T19:17:02.196Z,88.60
2023-02-11T19:20:06.107Z,88.45
2023-02-11T19:23:08.941Z,88.53
2023-02-11T19:26:11.572Z,88.53
2023-02-11T19:29:14.611Z,88.26
2023-02-11T19:32:17.529Z,88.52
2023-02-11T19:35:20.157Z,88.30
2023-02-11T19:38:22.809Z,88.47
2023-02-11T19:41:25.454Z,88.59
2023-02-11T19:44:28.430Z,88.50
2023-02-11T19:47:31.561Z,88.59
2023-02-11T19:50:34.374Z,88.58
2023-02-11T19:53:37.118Z,88.45
2023-02-11T19:56:39.795Z,88.55
2023-02-11T19:59:42.450Z,88.45
2023-02-11T20:02:47.191Z,88.41
2023-02-11T20:05:50.747Z,88.65
2023-02-11T20:08:58.005Z,88.62
2023-02-11T20:12:01.401Z,88.44
2023-02-11T20:15:04.238Z,88.53
2023-02-11T20:18:06.873Z,88.75
2023-02-11T20:21:10.493Z,88.52
2023-02-11T20:24:13.473Z,88.78
2023-02-11T20:27:17.835Z,88.60
2023-02-11T20:30:22.653Z,88.32
2023-02-11T20:33:25.639Z,88.61
2023-02-11T20:36:34.248Z,88.52
2023-02-11T20:39:41.022Z,88.52
2023-02-11T20:42:43.820Z,88.56
2023-02-11T20:45:47.102Z,88.56
2023-02-11T20:48:50.238Z,88.42
2023-02-11T20:51:53.965Z,88.51
2023-02-11T20:54:56.923Z,88.56
2023-02-11T20:57:59.529Z,88.57
2023-02-11T21:01:16.841Z,88.27
2023-02-11T21:04:20.818Z,88.53
2023-02-11T21:07:23.427Z,88.52
2023-02-11T21:10:27.359Z,88.49
2023-02-11T21:13:30.124Z,88.50
2023-02-11T21:16:32.824Z,88.44
2023-02-11T21:19:35.549Z,88.54
2023-02-11T21:22:38.226Z,88.52
2023-02-11T21:25:40.884Z,88.40
2023-02-11T21:28:44.092Z,88.41
2023-02-11T21:31:47.206Z,88.56
2023-02-11T21:34:49.957Z,88.40
2023-02-11T21:37:52.572Z,88.58
2023-02-11T21:40:55.680Z,88.78
2023-02-11T21:43:58.661Z,88.61
2023-02-11T21:47:01.425Z,88.89
2023-02-11T21:50:04.154Z,89.09
2023-02-11T21:53:07.185Z,88.79
2023-02-11T21:56:14.750Z,88.51
2023-02-11T21:59:18.014Z,88.71
2023-02-11T22:02:20.640Z,88.25
2023-02-11T22:05:23.724Z,88.13
2023-02-11T22:08:26.325Z,88.35
2023-02-11T22:11:29.005Z,88.47
2023-02-11T22:14:32.470Z,88.12
2023-02-11T22:17:35.400Z,87.91
2023-02-11T22:20:38.188Z,87.77
2023-02-11T22:23:41.412Z,87.49
2023-02-11T22:26:44.181Z,87.66
2023-02-11T22:29:47.231Z,87.39
2023-02-11T22:32:50.037Z,87.51
2023-02-11T22:35:59.405Z,87.37
2023-02-11T22:39:03.457Z,87.19
2023-02-11T22:42:06.109Z,87.01
2023-02-11T22:45:09.100Z,86.99
2023-02-11T22:48:11.716Z,86.93
2023-02-11T22:51:15.729Z,87.25
2023-02-11T22:54:19.281Z,86.97
2023-02-11T22:57:22.057Z,87.24
2023-02-11T23:00:26.373Z,87.04
2023-02-11T23:03:29.118Z,87.05
2023-02-11T23:06:31.910Z,87.17
2023-02-11T23:09:34.539Z,87.44
2023-02-11T23:12:37.265Z,87.26
2023-02-11T23:15:40.900Z,87.25
2023-02-11T23:18:44.580Z,87.24
2023-02-11T23:21:50.390Z,86.85
2023-02-11T23:24:53.271Z,87.21
2023-02-11T23:27:56.049Z,87.31
2023-02-11T23:30:58.731Z,87.07
2023-02-11T23:34:01.453Z,86.99
2023-02-11T23:37:04.076Z,87.00
2023-02-11T23:40:07.090Z,87.01
2023-02-11T23:43:09.718Z,86.85
2023-02-11T23:46:12.436Z,86.18
2023-02-11T23:49:15.612Z,86.03
2023-02-11T23:52:18.259Z,85.79
2023-02-11T23:55:20.885Z,85.51
2023-02-11T23:58:23.551Z,85.26
